Time;durP1;ratioP1;P1;durP2;ratioP2;P2;SDS_P1;SDS_P2;PMS_P1;PMS_P2;Temp;Humidity;BMP_temperature;BMP_pressure;BME280_temperature;BME280_humidity;BME280_pressure;Samples;Min_cycle;Max_cycle;Signal;HPM_P1;HPM_P2
2022/10/11 00:01:29;;;;;;;;;;;14.00;99.90;;;;;;5014271;28;19974;-64
2022/10/11 00:03:56;;;;;;;;;;;13.90;99.90;;;;;;5014543;28;19972;-63
2022/10/11 00:06:24;;;;;;;;;;;13.90;99.90;;;;;;5014954;28;20450;-64
2022/10/11 00:08:52;;;;;;;;;;;13.90;99.90;;;;;;5020092;28;19975;-64
2022/10/11 00:11:20;;;;;;;;;;;13.90;99.90;;;;;;5033870;28;19972;-64
2022/10/11 00:13:47;;;;;;;;;;;13.90;99.90;;;;;;5033569;28;20485;-63
2022/10/11 00:16:16;;;;;;;;;;;13.90;99.90;;;;;;5034054;28;19993;-64
2022/10/11 00:18:44;;;;;;;;;;;13.90;99.90;;;;;;5033968;28;19969;-64
2022/10/11 00:21:13;;;;;;;;;;;13.80;99.90;;;;;;5033827;28;19967;-63
2022/10/11 00:23:42;;;;;;;;;;;13.80;99.90;;;;;;5024442;28;19973;-64
2022/10/11 00:26:10;;;;;;;;;;;13.90;99.90;;;;;;5014322;28;19973;-63
2022/10/11 00:28:38;;;;;;;;;;;13.80;99.90;;;;;;5013889;28;19967;-63
2022/10/11 00:31:06;;;;;;;;;;;13.90;99.90;;;;;;5013785;28;19976;-63
2022/10/11 00:33:36;;;;;;;;;;;13.80;99.90;;;;;;5013368;28;19979;-63
2022/10/11 00:36:05;;;;;;;;;;;13.80;99.90;;;;;;5013617;28;20015;-63
2022/10/11 00:38:33;;;;;;;;;;;13.70;99.90;;;;;;5013702;28;19969;-64
2022/10/11 00:41:01;;;;;;;;;;;13.70;99.90;;;;;;5014224;28;19981;-64
2022/10/11 00:43:30;;;;;;;;;;;13.70;99.90;;;;;;5013478;28;20524;-63
2022/10/11 00:46:19;;;;;;;;;;;13.70;99.90;;;;;;5013592;28;19975;-64
2022/10/11 00:48:49;;;;;;;;;;;13.50;99.90;;;;;;5011649;28;20460;-64
2022/10/11 00:51:20;;;;;;;;;;;13.50;99.90;;;;;;5013455;28;20460;-65
2022/10/11 00:53:49;;;;;;;;;;;13.40;99.90;;;;;;5013450;28;19974;-64
2022/10/11 00:56:20;;;;;;;;;;;13.40;99.90;;;;;;5013501;28;19976;-64
2022/10/11 00:58:48;;;;;;;;;;;13.40;99.90;;;;;;5013838;28;19976;-64
2022/10/11 01:01:16;;;;;;;;;;;13.40;99.90;;;;;;5013215;28;20347;-64
2022/10/11 01:03:44;;;;;;;;;;;13.30;99.90;;;;;;5013128;28;20446;-64
2022/10/11 01:06:13;;;;;;;;;;;13.20;99.90;;;;;;5013309;28;19973;-66
2022/10/11 01:08:41;;;;;;;;;;;13.10;99.90;;;;;;5017564;28;20075;-64
2022/10/11 01:11:10;;;;;;;;;;;13.10;99.90;;;;;;5032851;28;19975;-63
2022/10/11 01:13:43;;;;;;;;;;;13.00;99.90;;;;;;5032017;28;19983;-63
2022/10/11 01:16:13;;;;;;;;;;;13.00;99.90;;;;;;5013129;28;20347;-63
2022/10/11 01:18:45;;;;;;;;;;;13.00;99.90;;;;;;5013033;28;19969;-64
2022/10/11 01:21:17;;;;;;;;;;;12.90;99.90;;;;;;5012989;28;19969;-63
2022/10/11 01:24:05;;;;;;;;;;;13.00;99.90;;;;;;5013010;28;20438;-63
2022/10/11 01:26:56;;;;;;;;;;;13.00;99.90;;;;;;5013050;28;20027;-63
2022/10/11 01:29:26;;;;;;;;;;;12.90;99.90;;;;;;5003766;28;19979;-63
2022/10/11 01:31:58;;;;;;;;;;;12.90;99.90;;;;;;5013259;28;19969;-64
2022/10/11 01:34:30;;;;;;;;;;;12.90;99.90;;;;;;5051136;28;19983;-63
2022/10/11 01:37:02;;;;;;;;;;;12.90;99.90;;;;;;5052524;28;19972;-63
2022/10/11 01:39:32;;;;;;;;;;;12.80;99.90;;;;;;5052249;28;20352;-63
2022/10/11 01:42:02;;;;;;;;;;;12.80;99.90;;;;;;5052185;28;19969;-63
2022/10/11 01:44:30;;;;;;;;;;;12.70;99.90;;;;;;5051495;28;19968;-63
2022/10/11 01:46:59;;;;;;;;;;;12.60;99.90;;;;;;5052081;28;19982;-63
2022/10/11 01:49:27;;;;;;;;;;;12.60;99.90;;;;;;5020451;28;20345;-62
2022/10/11 01:51:55;;;;;;;;;;;12.60;99.90;;;;;;5012377;28;20343;-64
2022/10/11 01:54:30;;;;;;;;;;;12.50;99.90;;;;;;5012374;28;19973;-64
2022/10/11 01:57:37;;;;;;;;;;;12.40;99.90;;;;;;5012262;28;20491;-64
2022/10/11 02:00:11;;;;;;;;;;;12.50;99.90;;;;;;5012408;28;19982;-62
2022/10/11 02:02:46;;;;;;;;;;;12.40;99.90;;;;;;5012444;28;20430;-64
2022/10/11 02:05:18;;;;;;;;;;;12.40;99.90;;;;;;5012672;28;19975;-64
2022/10/11 02:07:49;;;;;;;;;;;12.50;99.90;;;;;;5012067;28;19969;-63
2022/10/11 02:10:21;;;;;;;;;;;12.50;99.90;;;;;;5029808;28;20451;-64
2022/10/11 02:12:52;;;;;;;;;;;12.50;99.90;;;;;;5031584;28;19968;-63
2022/10/11 02:15:21;;;;;;;;;;;12.40;99.90;;;;;;5031935;28;20588;-64
2022/10/11 02:17:52;;;;;;;;;;;12.30;99.90;;;;;;5031926;28;19968;-63
2022/10/11 02:20:21;;;;;;;;;;;12.20;99.90;;;;;;5031826;28;19969;-63
2022/10/11 02:22:51;;;;;;;;;;;12.40;99.90;;;;;;5021440;28;19984;-64
2022/10/11 02:25:21;;;;;;;;;;;12.50;99.90;;;;;;5012085;28;19980;-64
2022/10/11 02:27:50;;;;;;;;;;;12.60;99.90;;;;;;5012302;28;19980;-64
2022/10/11 02:30:18;;;;;;;;;;;12.80;99.90;;;;;;5011939;28;19991;-64
2022/10/11 02:32:46;;;;;;;;;;;12.90;99.90;;;;;;5012090;28;19973;-63
2022/10/11 02:35:16;;;;;;;;;;;12.80;99.90;;;;;;5011769;28;20357;-63
2022/10/11 02:37:52;;;;;;;;;;;12.90;99.90;;;;;;5011973;28;19979;-63
2022/10/11 02:40:22;;;;;;;;;;;12.90;99.90;;;;;;5012490;28;19972;-64
2022/10/11 02:42:52;;;;;;;;;;;12.90;99.90;;;;;;5011918;28;20365;-64
2022/10/11 02:45:23;;;;;;;;;;;12.90;99.90;;;;;;5011822;28;19972;-64
2022/10/11 02:47:50;;;;;;;;;;;12.90;99.90;;;;;;5011768;28;19973;-64
2022/10/11 02:50:21;;;;;;;;;;;12.80;99.90;;;;;;5011928;28;19972;-63
2022/10/11 02:52:49;;;;;;;;;;;12.90;99.90;;;;;;5011963;28;19975;-63
2022/10/11 02:55:17;;;;;;;;;;;12.90;99.90;;;;;;5011596;28;19969;-64
2022/10/11 02:57:44;;;;;;;;;;;12.90;99.90;;;;;;5014513;28;19972;-63
2022/10/11 03:00:13;;;;;;;;;;;12.90;99.90;;;;;;5015348;28;20456;-63
2022/10/11 03:02:41;;;;;;;;;;;12.90;99.90;;;;;;5015592;28;19968;-64
2022/10/11 03:05:09;;;;;;;;;;;12.80;99.90;;;;;;5015563;28;19973;-63
2022/10/11 03:07:38;;;;;;;;;;;12.80;99.90;;;;;;5015092;28;19975;-63
2022/10/11 03:10:06;;;;;;;;;;;12.70;99.90;;;;;;5031540;28;19975;-63
2022/10/11 03:12:34;;;;;;;;;;;12.70;99.90;;;;;;5034531;28;19979;-64
2022/10/11 03:15:01;;;;;;;;;;;12.60;99.90;;;;;;5015126;28;19975;-63
2022/10/11 03:17:29;;;;;;;;;;;12.60;99.90;;;;;;5015402;28;20419;-64
2022/10/11 03:20:04;;;;;;;;;;;12.50;99.90;;;;;;5015251;28;19976;-63
2022/10/11 03:22:31;;;;;;;;;;;12.40;99.90;;;;;;5015344;28;19975;-64
2022/10/11 03:25:00;;;;;;;;;;;12.40;99.90;;;;;;5014791;28;19972;-64
2022/10/11 03:27:31;;;;;;;;;;;12.40;99.90;;;;;;5015166;28;19969;-64
2022/10/11 03:29:59;;;;;;;;;;;12.40;99.90;;;;;;5015563;28;20008;-64
2022/10/11 03:32:27;;;;;;;;;;;12.20;99.90;;;;;;5015065;28;19968;-64
2022/10/11 03:34:55;;;;;;;;;;;12.20;99.90;;;;;;5014866;28;19983;-63
2022/10/11 03:37:24;;;;;;;;;;;12.20;99.90;;;;;;5014811;28;19975;-64
2022/10/11 03:39:52;;;;;;;;;;;12.20;99.90;;;;;;5014781;28;19969;-64
2022/10/11 03:42:21;;;;;;;;;;;12.20;99.90;;;;;;5014851;28;20670;-66
2022/10/11 03:44:50;;;;;;;;;;;12.10;99.90;;;;;;5014846;28;19969;-66
2022/10/11 03:47:18;;;;;;;;;;;12.10;99.90;;;;;;5015311;28;19968;-64
2022/10/11 03:49:46;;;;;;;;;;;12.00;99.90;;;;;;5014609;28;19973;-64
2022/10/11 03:52:14;;;;;;;;;;;12.00;99.90;;;;;;5014696;28;20460;-63
2022/10/11 03:54:42;;;;;;;;;;;12.00;99.90;;;;;;5014440;28;19969;-64
2022/10/11 03:57:09;;;;;;;;;;;12.00;99.90;;;;;;5014562;28;20342;-63
2022/10/11 03:59:38;;;;;;;;;;;12.00;99.90;;;;;;5014358;28;19975;-64
2022/10/11 04:02:06;;;;;;;;;;;11.80;99.90;;;;;;5014584;28;19980;-63
2022/10/11 04:04:34;;;;;;;;;;;11.80;99.90;;;;;;5014790;28;19972;-63
2022/10/11 04:07:02;;;;;;;;;;;11.80;99.90;;;;;;5014223;28;19975;-63
2022/10/11 04:09:30;;;;;;;;;;;11.70;99.90;;;;;;5024991;28;19969;-63
2022/10/11 04:11:57;;;;;;;;;;;11.60;99.90;;;;;;5034024;28;19973;-64
2022/10/11 04:14:26;;;;;;;;;;;11.60;99.90;;;;;;5033359;28;20442;-63
2022/10/11 04:16:55;;;;;;;;;;;11.40;99.90;;;;;;5034005;28;19975;-64
2022/10/11 04:19:27;;;;;;;;;;;11.30;99.90;;;;;;5034143;28;19976;-63
2022/10/11 04:21:54;;;;;;;;;;;11.30;99.90;;;;;;5024695;28;19976;-63
2022/10/11 04:24:22;;;;;;;;;;;11.20;99.90;;;;;;5014051;28;19973;-63
2022/10/11 04:26:50;;;;;;;;;;;11.20;99.90;;;;;;5014089;28;20091;-63
2022/10/11 04:29:17;;;;;;;;;;;11.00;99.90;;;;;;5014105;28;19973;-63
2022/10/11 04:31:45;;;;;;;;;;;11.00;99.90;;;;;;5013627;28;19968;-63
2022/10/11 04:34:14;;;;;;;;;;;10.80;99.90;;;;;;5013511;28;19975;-64
2022/10/11 04:36:42;;;;;;;;;;;10.70;99.90;;;;;;5013543;28;19973;-64
2022/10/11 04:39:16;;;;;;;;;;;10.70;99.90;;;;;;5025719;28;19968;-64
2022/10/11 04:41:44;;;;;;;;;;;10.60;99.90;;;;;;5039140;28;19972;-63
2022/10/11 04:44:11;;;;;;;;;;;10.60;99.90;;;;;;5033067;28;19975;-63
2022/10/11 04:46:39;;;;;;;;;;;10.50;99.90;;;;;;5033130;28;19969;-63
2022/10/11 04:49:07;;;;;;;;;;;10.60;99.90;;;;;;5033095;28;19973;-64
2022/10/11 04:51:36;;;;;;;;;;;10.70;99.90;;;;;;5031699;28;19978;-64
2022/10/11 04:54:04;;;;;;;;;;;10.70;99.90;;;;;;5032972;28;20067;-65
2022/10/11 04:56:32;;;;;;;;;;;10.80;99.90;;;;;;5023975;28;19972;-63
2022/10/11 04:58:59;;;;;;;;;;;10.70;99.90;;;;;;5023884;28;19976;-64
2022/10/11 05:01:27;;;;;;;;;;;10.80;99.90;;;;;;5022755;28;21160;-65
2022/10/11 05:03:55;;;;;;;;;;;10.80;99.90;;;;;;5023872;28;19984;-64
2022/10/11 05:06:23;;;;;;;;;;;10.80;99.90;;;;;;5023389;28;19968;-63
2022/10/11 05:08:52;;;;;;;;;;;10.80;99.90;;;;;;5022459;28;19972;-64
2022/10/11 05:11:19;;;;;;;;;;;10.80;99.90;;;;;;5023754;28;19974;-65
2022/10/11 05:13:49;;;;;;;;;;;10.80;99.90;;;;;;5022838;28;20136;-65
2022/10/11 05:16:17;;;;;;;;;;;10.80;99.90;;;;;;5023580;28;19972;-64
2022/10/11 05:18:45;;;;;;;;;;;10.70;99.90;;;;;;5024121;28;19976;-64
2022/10/11 05:21:15;;;;;;;;;;;10.60;99.90;;;;;;5022799;28;19983;-64
2022/10/11 05:23:42;;;;;;;;;;;10.50;99.90;;;;;;5022477;28;20460;-65
2022/10/11 05:26:12;;;;;;;;;;;10.50;99.90;;;;;;5023041;28;19973;-64
2022/10/11 05:28:39;;;;;;;;;;;10.30;99.90;;;;;;5023410;28;19977;-64
2022/10/11 05:31:07;;;;;;;;;;;10.30;99.90;;;;;;5023693;28;19977;-65
2022/10/11 05:33:35;;;;;;;;;;;10.30;99.90;;;;;;5021936;28;19983;-64
2022/10/11 05:36:03;;;;;;;;;;;10.20;99.90;;;;;;5023864;28;19976;-64
2022/10/11 05:38:31;;;;;;;;;;;10.10;99.90;;;;;;5023465;28;19980;-64
2022/10/11 05:40:59;;;;;;;;;;;10.00;99.90;;;;;;5023407;28;19995;-64
2022/10/11 05:43:29;;;;;;;;;;;9.80;99.90;;;;;;5021874;28;19984;-63
2022/10/11 05:45:57;;;;;;;;;;;9.70;99.90;;;;;;5022603;28;19987;-64
2022/10/11 05:48:25;;;;;;;;;;;9.50;99.90;;;;;;5023077;28;20088;-64
2022/10/11 05:50:53;;;;;;;;;;;9.30;99.90;;;;;;5023994;28;20004;-64
2022/10/11 05:53:21;;;;;;;;;;;9.30;99.90;;;;;;5021769;28;19975;-64
2022/10/11 05:55:48;;;;;;;;;;;9.40;99.90;;;;;;5023028;28;19968;-64
2022/10/11 05:58:17;;;;;;;;;;;9.40;99.90;;;;;;5023308;28;20348;-64
2022/10/11 06:00:46;;;;;;;;;;;9.30;99.90;;;;;;5023159;28;19972;-64
2022/10/11 06:03:14;;;;;;;;;;;9.30;99.90;;;;;;5021636;28;20460;-64
2022/10/11 06:05:42;;;;;;;;;;;9.30;99.90;;;;;;5023066;28;20859;-64
2022/10/11 06:08:10;;;;;;;;;;;9.30;99.90;;;;;;5022893;28;19987;-64
2022/10/11 06:10:38;;;;;;;;;;;9.30;99.90;;;;;;5023181;28;20463;-64
2022/10/11 06:13:06;;;;;;;;;;;9.30;99.90;;;;;;5021517;28;20551;-64
2022/10/11 06:15:34;;;;;;;;;;;9.20;99.90;;;;;;5022732;28;19999;-64
2022/10/11 06:18:03;;;;;;;;;;;9.20;99.90;;;;;;5023190;28;19986;-63
2022/10/11 06:20:31;;;;;;;;;;;9.30;99.90;;;;;;5022301;28;19991;-64
2022/10/11 06:22:59;;;;;;;;;;;9.30;99.90;;;;;;5022083;28;19979;-63
2022/10/11 06:25:27;;;;;;;;;;;9.30;99.90;;;;;;5033011;28;19974;-64
2022/10/11 06:27:54;;;;;;;;;;;9.40;99.90;;;;;;5051832;28;19968;-63
2022/10/11 06:30:23;;;;;;;;;;;9.40;99.90;;;;;;5047299;28;19965;-63
2022/10/11 06:32:50;;;;;;;;;;;9.40;99.90;;;;;;5035932;28;19973;-64
2022/10/11 06:35:19;;;;;;;;;;;9.40;99.90;;;;;;5066077;23;19978;-64
2022/10/11 06:37:47;;;;;;;;;;;9.40;99.90;;;;;;5074769;28;19968;-65
2022/10/11 06:40:15;;;;;;;;;;;9.30;99.90;;;;;;5075447;28;19967;-64
2022/10/11 06:42:42;;;;;;;;;;;9.30;99.90;;;;;;5075768;28;19974;-64
2022/10/11 06:45:10;;;;;;;;;;;9.30;99.90;;;;;;5075310;28;19975;-64
2022/10/11 06:47:38;;;;;;;;;;;9.20;99.90;;;;;;5075564;28;19972;-64
2022/10/11 06:50:06;;;;;;;;;;;9.20;99.90;;;;;;5075315;28;19968;-64
2022/10/11 06:52:35;;;;;;;;;;;9.10;99.90;;;;;;5075603;28;19968;-64
2022/10/11 06:55:03;;;;;;;;;;;9.10;99.90;;;;;;5075328;28;19971;-66
2022/10/11 06:57:30;;;;;;;;;;;9.10;99.90;;;;;;5075136;28;19971;-64
2022/10/11 06:59:58;;;;;;;;;;;9.20;99.90;;;;;;5075135;28;20062;-64
2022/10/11 07:02:26;;;;;;;;;;;9.30;99.90;;;;;;5075345;28;20429;-64
2022/10/11 07:04:53;;;;;;;;;;;9.30;99.90;;;;;;5075062;28;19994;-64
2022/10/11 07:07:21;;;;;;;;;;;9.40;99.90;;;;;;5075243;28;19967;-65
2022/10/11 07:09:50;;;;;;;;;;;9.50;99.90;;;;;;5074912;28;20432;-64
2022/10/11 07:12:18;;;;;;;;;;;9.60;99.90;;;;;;5075033;28;20466;-64
2022/10/11 07:14:46;;;;;;;;;;;9.70;99.90;;;;;;5075217;28;19972;-65
2022/10/11 07:17:14;;;;;;;;;;;9.80;99.90;;;;;;5074814;28;19975;-64
2022/10/11 07:19:41;;;;;;;;;;;10.00;99.90;;;;;;5074708;28;20079;-64
2022/10/11 07:22:09;;;;;;;;;;;10.20;99.90;;;;;;5074971;28;19968;-65
2022/10/11 07:24:37;;;;;;;;;;;10.40;99.90;;;;;;5074806;28;19967;-64
2022/10/11 07:27:06;;;;;;;;;;;10.60;99.90;;;;;;5074587;28;20440;-64
2022/10/11 07:29:33;;;;;;;;;;;10.80;99.90;;;;;;5074708;28;19990;-64
2022/10/11 07:32:01;;;;;;;;;;;11.00;99.90;;;;;;5074870;28;19968;-65
2022/10/11 07:34:29;;;;;;;;;;;11.20;99.90;;;;;;5074815;28;19976;-65
2022/10/11 07:36:57;;;;;;;;;;;11.40;99.90;;;;;;5073776;28;20775;-64
2022/10/11 07:39:25;;;;;;;;;;;11.60;99.90;;;;;;5074661;28;19974;-65
2022/10/11 07:41:52;;;;;;;;;;;11.80;99.90;;;;;;5074221;28;19971;-64
2022/10/11 07:44:21;;;;;;;;;;;11.90;99.90;;;;;;5073874;28;20443;-64
2022/10/11 07:46:49;;;;;;;;;;;12.00;99.90;;;;;;5074356;28;19971;-65
2022/10/11 07:49:17;;;;;;;;;;;12.10;99.90;;;;;;5074093;28;19967;-65
2022/10/11 07:51:44;;;;;;;;;;;12.20;99.90;;;;;;5074173;28;20379;-64
2022/10/11 07:54:12;;;;;;;;;;;12.30;99.90;;;;;;5074337;28;19968;-65
2022/10/11 07:56:40;;;;;;;;;;;12.50;99.90;;;;;;5074135;28;19972;-64
2022/10/11 07:59:07;;;;;;;;;;;12.60;99.90;;;;;;5074283;28;19967;-64
2022/10/11 08:01:36;;;;;;;;;;;12.70;99.90;;;;;;5074135;28;19988;-65
2022/10/11 08:04:05;;;;;;;;;;;12.70;99.90;;;;;;5074115;28;20064;-64
2022/10/11 08:06:32;;;;;;;;;;;12.80;99.90;;;;;;5074298;28;20054;-64
2022/10/11 08:09:00;;;;;;;;;;;12.90;99.90;;;;;;5074094;28;19980;-64
2022/10/11 08:11:29;;;;;;;;;;;13.00;99.90;;;;;;5074016;28;19970;-65
2022/10/11 08:13:57;;;;;;;;;;;13.10;99.90;;;;;;5074128;28;19972;-65
2022/10/11 08:16:25;;;;;;;;;;;13.30;99.90;;;;;;5073678;28;20364;-65
2022/10/11 08:18:55;;;;;;;;;;;13.30;99.90;;;;;;5074008;28;20072;-64
2022/10/11 08:21:23;;;;;;;;;;;13.30;99.90;;;;;;5073967;28;19972;-65
2022/10/11 08:23:51;;;;;;;;;;;13.30;99.90;;;;;;5073826;28;19968;-65
2022/10/11 08:26:19;;;;;;;;;;;13.50;99.90;;;;;;5073482;28;19971;-64
2022/10/11 08:28:46;;;;;;;;;;;13.40;99.90;;;;;;5073705;28;19968;-64
2022/10/11 08:31:15;;;;;;;;;;;13.60;99.90;;;;;;5073493;28;20021;-64
2022/10/11 08:33:43;;;;;;;;;;;13.70;99.90;;;;;;5073608;28;20399;-64
2022/10/11 08:36:12;;;;;;;;;;;13.80;99.90;;;;;;5072740;28;20488;-64
2022/10/11 08:38:41;;;;;;;;;;;13.80;99.90;;;;;;5073473;28;19980;-65
2022/10/11 08:41:25;;;;;;;;;;;13.80;99.90;;;;;;5073221;28;19972;-64
2022/10/11 08:43:55;;;;;;;;;;;13.90;99.90;;;;;;5073442;28;19967;-64
2022/10/11 08:46:25;;;;;;;;;;;14.10;99.90;;;;;;5073161;28;20467;-64
2022/10/11 08:48:54;;;;;;;;;;;14.30;99.90;;;;;;5073431;28;20066;-65
2022/10/11 08:51:25;;;;;;;;;;;14.50;99.90;;;;;;5073070;28;19967;-65
2022/10/11 08:53:55;;;;;;;;;;;14.50;99.90;;;;;;5073195;28;19968;-65
2022/10/11 08:56:24;;;;;;;;;;;14.50;99.90;;;;;;5073120;28;19972;-65
2022/10/11 08:58:54;;;;;;;;;;;14.50;99.90;;;;;;5073016;28;19967;-65
2022/10/11 09:01:23;;;;;;;;;;;14.80;99.90;;;;;;5072808;28;20063;-65
2022/10/11 09:03:51;;;;;;;;;;;14.70;99.90;;;;;;5072903;28;19991;-65
2022/10/11 09:06:30;;;;;;;;;;;14.70;99.90;;;;;;5072700;28;20492;-65
2022/10/11 09:09:11;;;;;;;;;;;14.60;99.90;;;;;;5073447;28;19971;-65
2022/10/11 09:11:46;;;;;;;;;;;14.70;99.90;;;;;;5072714;28;19995;-65
2022/10/11 09:14:23;;;;;;;;;;;14.80;99.90;;;;;;5073277;28;19972;-65
2022/10/11 09:16:55;;;;;;;;;;;14.90;99.90;;;;;;5072415;28;19974;-64
2022/10/11 09:19:41;;;;;;;;;;;15.00;99.90;;;;;;5072848;28;20439;-65
2022/10/11 09:22:13;;;;;;;;;;;15.20;99.90;;;;;;5072823;28;20065;-65
2022/10/11 09:24:48;;;;;;;;;;;15.20;99.90;;;;;;5072632;28;19968;-65
2022/10/11 09:27:19;;;;;;;;;;;15.30;99.90;;;;;;5072464;28;19968;-65
2022/10/11 09:30:06;;;;;;;;;;;15.10;99.90;;;;;;5072579;28;19972;-65
2022/10/11 09:32:36;;;;;;;;;;;15.20;99.90;;;;;;5072481;28;19966;-65
2022/10/11 09:35:10;;;;;;;;;;;15.30;99.90;;;;;;5071979;28;20535;-65
2022/10/11 09:37:45;;;;;;;;;;;15.70;99.90;;;;;;5072242;28;19968;-65
2022/10/11 09:40:19;;;;;;;;;;;16.20;99.90;;;;;;5072094;28;20065;-65
2022/10/11 09:42:47;;;;;;;;;;;16.50;99.90;;;;;;5072544;28;19973;-65
2022/10/11 09:45:17;;;;;;;;;;;16.70;99.90;;;;;;5072124;28;19966;-65
2022/10/11 09:47:45;;;;;;;;;;;16.80;99.90;;;;;;5072105;28;19966;-65
2022/10/11 09:50:15;;;;;;;;;;;17.00;99.90;;;;;;5072217;28;20000;-66
2022/10/11 09:52:49;;;;;;;;;;;17.00;99.90;;;;;;5072414;28;19974;-65
2022/10/11 09:55:30;;;;;;;;;;;16.70;99.90;;;;;;5073054;28;20066;-66
2022/10/11 09:57:58;;;;;;;;;;;16.70;99.90;;;;;;5072130;28;19976;-65
2022/10/11 10:00:26;;;;;;;;;;;16.80;99.90;;;;;;5071939;28;19966;-65
2022/10/11 10:02:55;;;;;;;;;;;17.10;99.90;;;;;;5072487;28;19971;-65
2022/10/11 10:05:24;;;;;;;;;;;17.00;99.90;;;;;;5071746;28;19967;-65
2022/10/11 10:08:01;;;;;;;;;;;16.90;99.90;;;;;;5072004;28;20336;-65
2022/10/11 10:10:34;;;;;;;;;;;16.90;99.90;;;;;;5072114;28;19970;-65
2022/10/11 10:13:03;;;;;;;;;;;16.70;99.90;;;;;;5072170;28;19976;-64
2022/10/11 10:15:32;;;;;;;;;;;16.80;99.90;;;;;;5071971;28;19973;-65
2022/10/11 10:18:00;;;;;;;;;;;17.00;99.90;;;;;;5071918;28;20360;-64
2022/10/11 10:20:30;;;;;;;;;;;17.00;99.90;;;;;;5071739;28;19989;-64
2022/10/11 10:23:00;;;;;;;;;;;16.80;99.90;;;;;;5072066;28;20062;-64
2022/10/11 10:25:31;;;;;;;;;;;16.90;99.90;;;;;;5071988;28;20010;-64
2022/10/11 10:28:00;;;;;;;;;;;16.90;99.90;;;;;;5072204;28;19970;-64
2022/10/11 10:30:28;;;;;;;;;;;16.80;99.90;;;;;;5071809;28;19966;-64
2022/10/11 10:33:04;;;;;;;;;;;16.90;99.90;;;;;;5071856;28;19968;-64
2022/10/11 10:35:33;;;;;;;;;;;16.90;99.90;;;;;;5071284;28;20062;-64
2022/10/11 10:38:06;;;;;;;;;;;17.00;99.90;;;;;;5071867;28;20378;-64
2022/10/11 10:40:38;;;;;;;;;;;17.10;99.90;;;;;;5071480;28;19971;-64
2022/10/11 10:43:05;;;;;;;;;;;17.30;99.90;;;;;;5071406;28;20069;-64
2022/10/11 10:45:36;;;;;;;;;;;17.40;99.90;;;;;;5071702;28;20355;-65
2022/10/11 10:48:11;;;;;;;;;;;17.60;99.90;;;;;;5071935;28;19967;-64
2022/10/11 10:50:46;;;;;;;;;;;17.60;99.90;;;;;;5071564;28;20074;-64
2022/10/11 10:53:20;;;;;;;;;;;17.70;99.90;;;;;;5071491;28;19966;-65
2022/10/11 10:55:51;;;;;;;;;;;18.00;99.90;;;;;;5071656;28;19974;-65
2022/10/11 10:58:32;;;;;;;;;;;18.40;99.90;;;;;;5071915;28;19970;-64
2022/10/11 11:01:02;;;;;;;;;;;18.10;99.90;;;;;;5071484;28;20340;-64
2022/10/11 11:03:32;;;;;;;;;;;18.10;99.90;;;;;;5071345;28;19967;-65
2022/10/11 11:06:01;;;;;;;;;;;18.20;99.90;;;;;;5071469;28;19970;-66
2022/10/11 11:08:39;;;;;;;;;;;18.20;99.90;;;;;;5071750;28;20397;-64
2022/10/11 11:11:15;;;;;;;;;;;18.20;99.90;;;;;;5071488;28;19970;-64
2022/10/11 11:13:45;;;;;;;;;;;18.40;99.90;;;;;;5071516;28;19973;-65
2022/10/11 11:16:18;;;;;;;;;;;18.50;99.90;;;;;;5071493;28;20328;-64
2022/10/11 11:18:51;;;;;;;;;;;18.40;99.90;;;;;;5073613;28;19990;-65
2022/10/11 11:21:24;;;;;;;;;;;18.70;99.90;;;;;;5074922;28;20019;-65
2022/10/11 11:23:59;;;;;;;;;;;19.00;99.90;;;;;;5075102;28;19989;-65
2022/10/11 11:26:31;;;;;;;;;;;18.90;99.90;;;;;;5074899;28;20408;-66
2022/10/11 11:29:06;;;;;;;;;;;19.20;99.90;;;;;;5074850;28;19967;-65
2022/10/11 11:31:51;;;;;;;;;;;19.40;99.90;;;;;;5074959;28;19971;-66
2022/10/11 11:34:21;;;;;;;;;;;19.50;99.90;;;;;;5074686;28;20362;-64
2022/10/11 11:36:51;;;;;;;;;;;19.40;99.90;;;;;;5074332;28;20081;-65
2022/10/11 11:39:22;;;;;;;;;;;19.30;99.90;;;;;;5074831;28;20454;-65
2022/10/11 11:41:52;;;;;;;;;;;19.30;99.90;;;;;;5074441;28;20439;-64
2022/10/11 11:44:22;;;;;;;;;;;19.40;99.90;;;;;;5074644;28;19966;-64
2022/10/11 11:46:56;;;;;;;;;;;19.10;99.90;;;;;;5074736;28;19997;-65
2022/10/11 11:49:27;;;;;;;;;;;19.20;99.90;;;;;;5074344;28;19977;-65
2022/10/11 11:51:55;;;;;;;;;;;19.20;99.90;;;;;;5074676;28;20020;-65
2022/10/11 11:54:32;;;;;;;;;;;19.50;99.90;;;;;;5074411;28;20469;-65
2022/10/11 11:57:02;;;;;;;;;;;19.70;99.90;;;;;;5074537;28;19984;-65
2022/10/11 11:59:34;;;;;;;;;;;19.60;99.90;;;;;;5074084;28;20028;-63
2022/10/11 12:02:16;;;;;;;;;;;19.50;99.30;;;;;;5074256;28;19970;-64
2022/10/11 12:04:47;;;;;;;;;;;19.70;99.40;;;;;;5074463;28;20060;-64
2022/10/11 12:07:16;;;;;;;;;;;19.60;98.80;;;;;;5074313;28;20066;-65
2022/10/11 12:09:49;;;;;;;;;;;19.80;98.20;;;;;;5073712;28;20020;-65
2022/10/11 12:12:28;;;;;;;;;;;20.20;97.80;;;;;;5074098;28;19970;-65
2022/10/11 12:15:02;;;;;;;;;;;20.30;96.50;;;;;;5074134;28;19971;-65
2022/10/11 12:17:31;;;;;;;;;;;20.60;96.80;;;;;;5074247;28;19970;-65
2022/10/11 12:20:03;;;;;;;;;;;20.90;97.70;;;;;;5074036;28;20066;-65
2022/10/11 12:22:49;;;;;;;;;;;21.20;97.00;;;;;;5073912;28;19973;-65
2022/10/11 12:25:38;;;;;;;;;;;21.20;95.70;;;;;;5073935;28;19972;-65
2022/10/11 12:28:24;;;;;;;;;;;21.20;96.10;;;;;;5073765;28;19967;-64
2022/10/11 12:30:53;;;;;;;;;;;20.90;96.20;;;;;;5073758;28;19971;-64
2022/10/11 12:33:22;;;;;;;;;;;20.40;96.40;;;;;;5074133;28;19970;-66
2022/10/11 12:35:56;;;;;;;;;;;20.60;96.50;;;;;;5074102;28;20065;-65
2022/10/11 12:38:24;;;;;;;;;;;20.70;96.30;;;;;;5073761;28;20519;-65
2022/10/11 12:40:55;;;;;;;;;;;20.90;95.40;;;;;;5073299;28;20415;-65
2022/10/11 12:43:25;;;;;;;;;;;21.00;95.80;;;;;;5074039;28;19981;-65
2022/10/11 12:45:52;;;;;;;;;;;21.10;94.60;;;;;;5073453;28;19978;-65
2022/10/11 12:48:37;;;;;;;;;;;20.80;95.60;;;;;;5073398;28;20057;-65
2022/10/11 12:51:28;;;;;;;;;;;20.90;94.60;;;;;;5073356;28;19973;-65
2022/10/11 12:54:02;;;;;;;;;;;21.20;94.80;;;;;;5067582;28;19970;-65
2022/10/11 12:56:59;;;;;;;;;;;21.40;93.90;;;;;;5073144;28;19970;-66
2022/10/11 12:59:27;;;;;;;;;;;21.10;94.60;;;;;;5073055;28;19966;-65
2022/10/11 13:01:56;;;;;;;;;;;21.10;95.40;;;;;;5072975;28;19970;-64
2022/10/11 13:04:27;;;;;;;;;;;20.80;95.30;;;;;;5073318;28;19973;-66
2022/10/11 13:06:57;;;;;;;;;;;20.90;95.00;;;;;;5073238;28;19967;-66
2022/10/11 13:09:35;;;;;;;;;;;21.00;95.20;;;;;;5072967;28;20422;-66
2022/10/11 13:12:06;;;;;;;;;;;21.20;95.00;;;;;;5072854;28;19966;-66
2022/10/11 13:14:35;;;;;;;;;;;21.10;94.90;;;;;;5073073;28;19966;-66
2022/10/11 13:17:06;;;;;;;;;;;20.80;94.80;;;;;;5072977;28;19966;-65
2022/10/11 13:19:34;;;;;;;;;;;20.60;94.90;;;;;;5072668;28;19967;-65
2022/10/11 13:22:04;;;;;;;;;;;20.60;94.50;;;;;;5072811;28;20427;-65
2022/10/11 13:24:36;;;;;;;;;;;20.50;94.00;;;;;;5073091;28;20013;-66
2022/10/11 13:27:06;;;;;;;;;;;20.60;93.40;;;;;;5072868;28;20024;-65
2022/10/11 13:29:35;;;;;;;;;;;20.50;91.60;;;;;;5072310;28;20269;-64
2022/10/11 13:32:05;;;;;;;;;;;20.60;92.00;;;;;;5072721;28;20335;-65
2022/10/11 13:34:36;;;;;;;;;;;20.90;92.20;;;;;;5072616;28;20355;-65
2022/10/11 13:37:05;;;;;;;;;;;21.20;92.20;;;;;;5052895;28;19973;-64
2022/10/11 13:39:34;;;;;;;;;;;21.40;91.60;;;;;;5052517;28;20011;-65
2022/10/11 13:42:04;;;;;;;;;;;21.70;91.50;;;;;;5052089;28;20448;-65
2022/10/11 13:44:34;;;;;;;;;;;21.40;92.30;;;;;;5052593;28;19978;-65
2022/10/11 13:47:02;;;;;;;;;;;21.50;91.90;;;;;;5052487;28;19971;-65
2022/10/11 13:49:36;;;;;;;;;;;21.30;91.90;;;;;;5052043;28;19975;-65
2022/10/11 13:52:05;;;;;;;;;;;21.40;91.90;;;;;;5052548;28;19968;-65
2022/10/11 13:54:53;;;;;;;;;;;21.40;91.60;;;;;;5052385;28;19967;-65
2022/10/11 13:57:22;;;;;;;;;;;21.20;91.90;;;;;;5052884;28;19973;-65
2022/10/11 13:59:51;;;;;;;;;;;20.90;92.30;;;;;;5052094;28;19972;-65
2022/10/11 14:02:21;;;;;;;;;;;21.10;92.80;;;;;;5052302;28;20063;-65
2022/10/11 14:04:48;;;;;;;;;;;21.00;91.80;;;;;;5052259;28;20061;-65
2022/10/11 14:07:22;;;;;;;;;;;20.70;91.50;;;;;;5052232;28;20351;-66
2022/10/11 14:09:50;;;;;;;;;;;20.90;91.20;;;;;;5051919;28;19968;-65
2022/10/11 14:12:29;;;;;;;;;;;20.80;92.10;;;;;;5052603;28;20359;-65
2022/10/11 14:14:59;;;;;;;;;;;20.80;92.20;;;;;;5052190;28;19967;-64
2022/10/11 14:17:37;;;;;;;;;;;20.90;92.20;;;;;;5051914;28;20451;-65
2022/10/11 14:20:09;;;;;;;;;;;20.80;92.50;;;;;;5051854;28;19968;-65
2022/10/11 14:22:38;;;;;;;;;;;20.40;92.80;;;;;;5051715;28;20428;-65
2022/10/11 14:25:06;;;;;;;;;;;19.90;93.40;;;;;;5051744;28;20457;-65
2022/10/11 14:27:34;;;;;;;;;;;19.30;94.10;;;;;;5051882;28;20006;-66
2022/10/11 14:30:04;;;;;;;;;;;19.00;96.20;;;;;;5052528;28;19966;-66
2022/10/11 14:32:53;;;;;;;;;;;18.40;95.30;;;;;;5051951;28;19967;-65
2022/10/11 14:35:22;;;;;;;;;;;17.90;96.10;;;;;;5057089;28;19966;-64
2022/10/11 14:37:50;;;;;;;;;;;17.60;97.00;;;;;;5071756;28;20089;-66